Time;durP1;ratioP1;P1;durP2;ratioP2;P2;SDS_P1;SDS_P2;PMS_P1;PMS_P2;Temp;Humidity;BMP_temperature;BMP_pressure;BME280_temperature;BME280_humidity;BME280_pressure;Samples;Min_cycle;Max_cycle;Signal;HPM_P1;HPM_P2
2022/01/16 00:00:03;;;;;;;;;;;2.20;99.90;;;;;;5034475;28;20024;-76
2022/01/16 00:05:04;;;;;;;;;;;2.20;99.90;;;;;;5034862;28;19921;-75
2022/01/16 00:07:30;;;;;;;;;;;2.30;99.90;;;;;;5017371;28;20228;-76
2022/01/16 00:09:55;;;;;;;;;;;2.30;99.90;;;;;;5033157;28;19913;-76
2022/01/16 00:12:23;;;;;;;;;;;2.30;99.90;;;;;;5017536;28;20212;-76
2022/01/16 00:14:52;;;;;;;;;;;2.40;99.90;;;;;;5034124;28;19928;-75
2022/01/16 00:17:20;;;;;;;;;;;2.30;99.90;;;;;;5034360;28;19913;-76
2022/01/16 00:19:46;;;;;;;;;;;2.30;99.90;;;;;;5034706;28;19913;-76
2022/01/16 00:22:14;;;;;;;;;;;2.40;99.90;;;;;;5048477;28;19909;-76
2022/01/16 00:24:40;;;;;;;;;;;2.40;99.90;;;;;;5042075;28;19917;-76
2022/01/16 00:27:08;;;;;;;;;;;2.40;99.90;;;;;;5032686;28;20456;-76
2022/01/16 00:29:34;;;;;;;;;;;2.40;99.90;;;;;;5017419;28;19924;-76
2022/01/16 00:32:00;;;;;;;;;;;2.40;99.90;;;;;;5034813;28;19953;-76
2022/01/16 00:34:25;;;;;;;;;;;2.40;99.90;;;;;;5034385;28;19920;-76
2022/01/16 00:36:52;;;;;;;;;;;2.40;99.90;;;;;;5037580;28;19971;-76
2022/01/16 00:39:17;;;;;;;;;;;2.40;99.90;;;;;;5037467;28;19982;-76
2022/01/16 00:41:43;;;;;;;;;;;2.40;99.90;;;;;;5021514;28;20309;-76
2022/01/16 00:44:09;;;;;;;;;;;2.40;99.90;;;;;;5038197;28;20582;-76
2022/01/16 00:46:35;;;;;;;;;;;2.40;99.90;;;;;;5038308;28;19917;-76
2022/01/16 00:49:01;;;;;;;;;;;2.50;99.90;;;;;;5037341;28;19913;-77
2022/01/16 00:51:27;;;;;;;;;;;2.50;99.90;;;;;;5038429;28;19913;-76
2022/01/16 00:53:52;;;;;;;;;;;2.50;99.90;;;;;;5038288;28;19913;-77
2022/01/16 00:56:18;;;;;;;;;;;2.50;99.90;;;;;;5023605;28;19924;-76
2022/01/16 00:58:43;;;;;;;;;;;2.50;99.90;;;;;;5036479;28;19913;-76
2022/01/16 01:01:09;;;;;;;;;;;2.50;99.90;;;;;;5038152;28;19943;-76
2022/01/16 01:03:35;;;;;;;;;;;2.50;99.90;;;;;;5037522;28;20309;-76
2022/01/16 01:06:00;;;;;;;;;;;2.50;99.90;;;;;;5033526;28;19918;-76
2022/01/16 01:08:28;;;;;;;;;;;2.50;99.90;;;;;;5019290;28;19913;-76
2022/01/16 01:10:54;;;;;;;;;;;2.50;99.90;;;;;;5038297;28;20244;-76
2022/01/16 01:13:23;;;;;;;;;;;2.50;99.90;;;;;;5038016;28;19996;-76
2022/01/16 01:15:51;;;;;;;;;;;2.50;99.90;;;;;;5035336;28;19971;-76
2022/01/16 01:18:19;;;;;;;;;;;2.60;99.90;;;;;;5037399;28;20316;-76
2022/01/16 01:20:46;;;;;;;;;;;2.50;99.90;;;;;;5039512;28;19910;-76
2022/01/16 01:23:12;;;;;;;;;;;2.50;99.90;;;;;;5036512;28;19919;-76
2022/01/16 01:25:38;;;;;;;;;;;2.50;99.90;;;;;;5003760;28;19921;-76
2022/01/16 01:28:05;;;;;;;;;;;2.50;99.90;;;;;;5036931;28;20319;-76
2022/01/16 01:30:30;;;;;;;;;;;2.50;99.90;;;;;;5036143;28;20214;-76
2022/01/16 01:32:58;;;;;;;;;;;2.50;99.90;;;;;;5036170;28;19917;-76
2022/01/16 01:35:24;;;;;;;;;;;2.50;99.90;;;;;;5037154;28;19924;-76
2022/01/16 01:37:50;;;;;;;;;;;2.60;99.90;;;;;;5036322;28;19925;-77
2022/01/16 01:40:18;;;;;;;;;;;2.60;99.90;;;;;;5037244;28;19944;-76
2022/01/16 01:43:03;;;;;;;;;;;2.60;99.90;;;;;;5037422;28;19986;-76
2022/01/16 01:51:16;;;;;;;;;;;2.70;99.90;;;;;;5037068;28;19920;-76
2022/01/16 01:53:43;;;;;;;;;;;2.70;99.90;;;;;;5036896;28;19913;-77
2022/01/16 01:56:09;;;;;;;;;;;2.70;99.90;;;;;;5037071;28;20236;-76
2022/01/16 01:58:36;;;;;;;;;;;2.70;99.90;;;;;;5036486;28;19917;-76
2022/01/16 02:01:02;;;;;;;;;;;2.70;99.90;;;;;;5019176;28;19917;-76
2022/01/16 02:06:06;;;;;;;;;;;2.80;99.90;;;;;;5037249;28;19920;-76
2022/01/16 02:08:31;;;;;;;;;;;2.80;99.90;;;;;;5036417;28;19917;-76
2022/01/16 02:10:59;;;;;;;;;;;2.80;99.90;;;;;;5036566;28;19975;-77
2022/01/16 02:13:30;;;;;;;;;;;2.80;99.90;;;;;;5035541;28;20012;-76
2022/01/16 02:34:35;;;;;;;;;;;3.00;99.90;;;;;;5034864;28;19992;-76
2022/01/16 02:37:06;;;;;;;;;;;3.00;99.90;;;;;;5034399;28;20396;-77
2022/01/16 02:39:35;;;;;;;;;;;3.00;99.90;;;;;;5029352;28;20220;-77
2022/01/16 02:42:01;;;;;;;;;;;3.10;99.90;;;;;;5029362;28;19963;-76
2022/01/16 02:46:52;;;;;;;;;;;3.10;99.90;;;;;;5024558;28;19920;-76
2022/01/16 02:49:19;;;;;;;;;;;3.10;99.90;;;;;;5016400;28;19932;-77
2022/01/16 02:51:45;;;;;;;;;;;3.10;99.90;;;;;;5035083;28;19913;-76
2022/01/16 02:54:10;;;;;;;;;;;3.10;99.90;;;;;;5034523;28;19975;-77
2022/01/16 02:56:37;;;;;;;;;;;3.10;99.90;;;;;;5033350;28;19956;-77
2022/01/16 02:59:03;;;;;;;;;;;3.10;99.90;;;;;;5015242;28;20414;-76
2022/01/16 03:01:28;;;;;;;;;;;3.10;99.90;;;;;;5017322;28;19916;-78
2022/01/16 03:03:54;;;;;;;;;;;3.10;99.90;;;;;;5016693;28;19917;-77
2022/01/16 03:06:19;;;;;;;;;;;3.20;99.90;;;;;;5034540;28;19924;-76
2022/01/16 03:08:45;;;;;;;;;;;3.20;99.90;;;;;;5034009;28;20216;-77
2022/01/16 03:11:20;;;;;;;;;;;3.20;99.90;;;;;;5034878;28;19920;-79
2022/01/16 03:13:50;;;;;;;;;;;3.20;99.90;;;;;;5017085;28;19952;-77
2022/01/16 03:16:16;;;;;;;;;;;3.30;99.90;;;;;;5014739;28;19921;-76
2022/01/16 03:24:10;;;;;;;;;;;3.30;99.90;;;;;;5040506;28;20213;-77
2022/01/16 03:26:36;;;;;;;;;;;3.30;99.90;;;;;;5035731;28;19909;-76
2022/01/16 03:29:02;;;;;;;;;;;3.30;99.90;;;;;;5035591;28;19910;-76
2022/01/16 03:31:27;;;;;;;;;;;3.30;99.90;;;;;;5035202;28;19913;-76
2022/01/16 03:33:53;;;;;;;;;;;3.30;99.90;;;;;;5035073;28;20013;-78
2022/01/16 03:36:18;;;;;;;;;;;3.30;99.90;;;;;;5033946;28;19925;-77
2022/01/16 03:38:44;;;;;;;;;;;3.30;99.90;;;;;;5033607;28;21425;-77
2022/01/16 03:41:09;;;;;;;;;;;3.30;99.90;;;;;;5032560;28;19970;-77
2022/01/16 03:43:35;;;;;;;;;;;3.30;99.90;;;;;;5034809;28;20223;-78
2022/01/16 03:46:01;;;;;;;;;;;3.30;99.90;;;;;;5017462;28;19920;-76
2022/01/16 03:48:26;;;;;;;;;;;3.30;99.90;;;;;;5034829;28;19913;-77
2022/01/16 03:50:52;;;;;;;;;;;3.40;99.90;;;;;;5035168;28;20316;-77
2022/01/16 03:53:17;;;;;;;;;;;3.30;99.90;;;;;;5035441;28;19919;-76
2022/01/16 03:55:43;;;;;;;;;;;3.30;99.90;;;;;;5034746;28;19955;-77
2022/01/16 03:58:08;;;;;;;;;;;3.40;99.90;;;;;;5035258;28;19913;-76
2022/01/16 04:00:34;;;;;;;;;;;3.40;99.90;;;;;;5035044;28;19917;-76
2022/01/16 04:03:00;;;;;;;;;;;3.40;99.90;;;;;;5034754;28;20000;-77
2022/01/16 04:05:25;;;;;;;;;;;3.40;99.90;;;;;;5017626;28;20308;-77
2022/01/16 04:07:51;;;;;;;;;;;3.40;99.90;;;;;;5034760;28;19913;-77
2022/01/16 04:10:16;;;;;;;;;;;3.40;99.90;;;;;;5030117;28;19914;-77
2022/01/16 04:12:44;;;;;;;;;;;3.40;99.90;;;;;;5030544;28;19917;-76
2022/01/16 04:17:39;;;;;;;;;;;3.40;99.90;;;;;;5035044;28;19913;-77
2022/01/16 04:20:05;;;;;;;;;;;3.40;99.90;;;;;;5016881;28;20068;-76
2022/01/16 04:22:30;;;;;;;;;;;3.40;99.90;;;;;;5033240;28;19917;-77
2022/01/16 04:24:56;;;;;;;;;;;3.40;99.90;;;;;;5035577;28;19917;-77
2022/01/16 04:27:22;;;;;;;;;;;3.40;99.90;;;;;;5034357;28;19913;-77
2022/01/16 04:29:47;;;;;;;;;;;3.40;99.90;;;;;;5017099;28;19935;-77
2022/01/16 04:32:13;;;;;;;;;;;3.40;99.90;;;;;;5016911;28;19924;-76
2022/01/16 04:34:39;;;;;;;;;;;3.40;99.90;;;;;;5033832;28;19960;-77
2022/01/16 04:37:05;;;;;;;;;;;3.40;99.90;;;;;;5027670;28;19926;-76
2022/01/16 04:39:33;;;;;;;;;;;3.40;99.90;;;;;;5021126;28;20004;-76
2022/01/16 04:44:43;;;;;;;;;;;3.30;99.90;;;;;;5026640;28;19932;-76
2022/01/16 04:47:08;;;;;;;;;;;3.30;99.90;;;;;;5021830;28;19917;-77
2022/01/16 04:49:34;;;;;;;;;;;3.30;99.90;;;;;;5031416;28;19959;-77
2022/01/16 04:51:59;;;;;;;;;;;3.30;99.90;;;;;;5033071;28;19917;-77
2022/01/16 04:54:25;;;;;;;;;;;3.20;99.90;;;;;;5031426;28;19944;-77
2022/01/16 04:56:51;;;;;;;;;;;3.20;99.90;;;;;;5029799;28;19923;-77
2022/01/16 04:59:17;;;;;;;;;;;3.20;99.90;;;;;;5015953;28;19925;-77
2022/01/16 05:01:43;;;;;;;;;;;3.20;99.90;;;;;;5009600;28;19959;-77
2022/01/16 05:04:08;;;;;;;;;;;3.20;99.90;;;;;;5026448;28;19921;-77
2022/01/16 05:06:34;;;;;;;;;;;3.20;99.90;;;;;;5024053;28;19913;-77
2022/01/16 05:08:59;;;;;;;;;;;3.20;99.90;;;;;;5022796;28;19917;-77
2022/01/16 05:11:26;;;;;;;;;;;3.20;99.90;;;;;;5014431;28;20190;-76
2022/01/16 05:16:41;;;;;;;;;;;3.20;99.90;;;;;;5014260;28;20577;-77
2022/01/16 05:19:08;;;;;;;;;;;3.20;99.90;;;;;;5001485;28;19949;-78
2022/01/16 05:21:34;;;;;;;;;;;3.20;99.90;;;;;;5016319;28;19913;-78
2022/01/16 05:23:59;;;;;;;;;;;3.20;99.90;;;;;;5024327;28;20271;-77
2022/01/16 05:26:27;;;;;;;;;;;3.20;99.90;;;;;;5024324;28;19914;-77
2022/01/16 05:28:56;;;;;;;;;;;3.20;99.90;;;;;;5020511;28;20371;-78
2022/01/16 05:31:22;;;;;;;;;;;3.20;99.90;;;;;;5018089;28;20319;-78
2022/01/16 05:33:48;;;;;;;;;;;3.20;99.90;;;;;;5024312;28;19913;-78
2022/01/16 05:36:18;;;;;;;;;;;3.20;99.90;;;;;;5015900;28;19929;-77
2022/01/16 05:38:44;;;;;;;;;;;3.20;99.90;;;;;;4993982;28;19925;-76
2022/01/16 05:41:10;;;;;;;;;;;3.20;99.90;;;;;;5011917;28;19917;-76
2022/01/16 05:43:35;;;;;;;;;;;3.30;99.90;;;;;;5009586;28;20007;-76
2022/01/16 05:46:01;;;;;;;;;;;3.30;99.90;;;;;;5004641;28;20004;-77
2022/01/16 05:48:27;;;;;;;;;;;3.30;99.90;;;;;;5011661;28;20320;-77
2022/01/16 05:50:53;;;;;;;;;;;3.30;99.90;;;;;;5009570;28;19917;-77
2022/01/16 05:53:19;;;;;;;;;;;3.30;99.90;;;;;;5010878;28;19921;-77
2022/01/16 05:55:44;;;;;;;;;;;3.30;99.90;;;;;;4989247;28;19956;-77
2022/01/16 05:58:10;;;;;;;;;;;3.20;99.90;;;;;;5017326;28;19994;-76
2022/01/16 06:00:37;;;;;;;;;;;3.30;99.90;;;;;;5007730;28;20004;-77
2022/01/16 06:03:03;;;;;;;;;;;3.20;99.90;;;;;;4998232;28;19924;-77
2022/01/16 06:05:28;;;;;;;;;;;3.20;99.90;;;;;;5012044;28;19914;-77
2022/01/16 06:07:58;;;;;;;;;;;3.20;99.90;;;;;;5007972;28;19949;-77
2022/01/16 06:10:24;;;;;;;;;;;3.20;99.90;;;;;;5005356;28;20601;-76
2022/01/16 06:12:51;;;;;;;;;;;3.20;99.90;;;;;;5009896;28;19925;-76
2022/01/16 06:15:20;;;;;;;;;;;3.20;99.90;;;;;;5005604;28;19922;-76
2022/01/16 06:17:46;;;;;;;;;;;3.20;99.90;;;;;;5010548;28;19913;-76
2022/01/16 06:20:11;;;;;;;;;;;3.10;99.90;;;;;;5014413;28;19921;-77
2022/01/16 06:22:37;;;;;;;;;;;3.10;99.90;;;;;;5003955;28;19913;-77
2022/01/16 06:25:02;;;;;;;;;;;3.20;99.90;;;;;;5011847;28;19928;-76
2022/01/16 06:27:28;;;;;;;;;;;3.20;99.90;;;;;;5013862;28;19913;-76
2022/01/16 06:29:53;;;;;;;;;;;3.20;99.90;;;;;;5012306;28;20372;-76
2022/01/16 06:32:19;;;;;;;;;;;3.20;99.90;;;;;;5005883;28;20004;-76
2022/01/16 06:34:44;;;;;;;;;;;3.20;99.90;;;;;;5009619;28;19928;-77
2022/01/16 06:37:10;;;;;;;;;;;3.20;99.90;;;;;;5015966;28;20309;-76
2022/01/16 06:39:35;;;;;;;;;;;3.20;99.90;;;;;;5034724;28;19975;-78
2022/01/16 06:42:01;;;;;;;;;;;3.30;99.90;;;;;;5036023;28;19920;-76
2022/01/16 06:44:27;;;;;;;;;;;3.20;99.90;;;;;;5031661;28;19918;-76
2022/01/16 06:46:52;;;;;;;;;;;3.30;99.90;;;;;;5031306;28;19914;-76
2022/01/16 06:49:18;;;;;;;;;;;3.30;99.90;;;;;;5023555;28;19958;-76
2022/01/16 06:51:43;;;;;;;;;;;3.30;99.90;;;;;;5035923;28;20035;-76
2022/01/16 06:54:09;;;;;;;;;;;3.40;99.90;;;;;;5035936;28;19924;-76
2022/01/16 06:56:34;;;;;;;;;;;3.40;99.90;;;;;;5034833;28;19928;-76
2022/01/16 06:59:00;;;;;;;;;;;3.40;99.90;;;;;;5034900;28;19924;-76
2022/01/16 07:01:26;;;;;;;;;;;3.50;99.90;;;;;;5035679;28;19913;-76
2022/01/16 07:03:53;;;;;;;;;;;3.50;99.90;;;;;;5039093;28;19920;-77
2022/01/16 07:06:19;;;;;;;;;;;3.50;99.90;;;;;;5034448;28;20425;-77
2022/01/16 07:08:45;;;;;;;;;;;3.50;99.90;;;;;;5036157;28;19956;-76
2022/01/16 07:11:11;;;;;;;;;;;3.60;99.90;;;;;;5035614;28;19940;-76
2022/01/16 07:13:36;;;;;;;;;;;3.60;99.90;;;;;;5035126;28;19909;-76
2022/01/16 07:16:02;;;;;;;;;;;3.60;99.90;;;;;;5034071;28;19924;-76
2022/01/16 07:18:28;;;;;;;;;;;3.70;99.90;;;;;;5036060;28;20207;-77
2022/01/16 07:20:53;;;;;;;;;;;3.60;99.90;;;;;;5017560;28;19924;-76
2022/01/16 07:23:19;;;;;;;;;;;3.70;99.90;;;;;;5035893;28;19913;-76
2022/01/16 07:25:45;;;;;;;;;;;3.70;99.90;;;;;;5017738;28;19924;-76
2022/01/16 07:28:11;;;;;;;;;;;3.70;99.90;;;;;;5034776;28;20284;-76
2022/01/16 07:30:37;;;;;;;;;;;3.70;99.90;;;;;;5034674;28;19913;-77
2022/01/16 07:33:03;;;;;;;;;;;3.70;99.90;;;;;;5017526;28;19913;-77
2022/01/16 07:35:29;;;;;;;;;;;3.70;99.90;;;;;;5035465;28;20304;-76
2022/01/16 07:37:55;;;;;;;;;;;3.80;99.90;;;;;;5035402;28;19974;-77
2022/01/16 07:40:21;;;;;;;;;;;3.80;99.90;;;;;;5035212;28;19924;-77
2022/01/16 07:42:47;;;;;;;;;;;3.80;99.90;;;;;;5030821;28;19917;-76
2022/01/16 07:45:12;;;;;;;;;;;3.80;99.90;;;;;;5031257;28;19925;-76
2022/01/16 07:47:38;;;;;;;;;;;3.90;99.90;;;;;;5025264;28;20359;-77
2022/01/16 07:50:04;;;;;;;;;;;3.90;99.90;;;;;;5032142;28;20003;-77
2022/01/16 07:52:30;;;;;;;;;;;3.90;99.90;;;;;;5032047;28;19917;-77
2022/01/16 07:54:55;;;;;;;;;;;3.90;99.90;;;;;;5032402;28;20228;-78
2022/01/16 07:57:21;;;;;;;;;;;4.00;99.90;;;;;;5015323;28;19952;-76
2022/01/16 07:59:46;;;;;;;;;;;4.00;99.90;;;;;;5031652;28;19920;-77
2022/01/16 08:02:12;;;;;;;;;;;4.10;99.90;;;;;;5030224;28;20264;-76
2022/01/16 08:04:37;;;;;;;;;;;4.10;99.90;;;;;;5030322;28;19956;-76
2022/01/16 08:07:04;;;;;;;;;;;4.10;99.90;;;;;;5027918;28;19923;-77
2022/01/16 08:09:29;;;;;;;;;;;4.10;99.90;;;;;;5033289;28;20042;-77
2022/01/16 08:11:55;;;;;;;;;;;4.20;99.90;;;;;;5033802;28;20036;-77
2022/01/16 08:14:20;;;;;;;;;;;4.20;99.90;;;;;;5015960;28;19921;-78
2022/01/16 08:16:46;;;;;;;;;;;4.20;99.90;;;;;;5033388;28;19922;-77
2022/01/16 08:19:12;;;;;;;;;;;4.30;99.90;;;;;;5016475;28;19936;-77
2022/01/16 08:21:37;;;;;;;;;;;4.40;99.90;;;;;;5033549;28;19921;-76
2022/01/16 08:24:04;;;;;;;;;;;4.50;99.90;;;;;;5030820;28;19913;-78
2022/01/16 08:26:30;;;;;;;;;;;4.50;99.90;;;;;;5032747;28;19913;-78
2022/01/16 08:28:56;;;;;;;;;;;4.50;99.90;;;;;;5033567;28;19917;-77
2022/01/16 08:31:23;;;;;;;;;;;4.60;99.90;;;;;;5031697;28;19963;-78
2022/01/16 08:33:48;;;;;;;;;;;4.80;99.90;;;;;;5032742;28;19925;-79
2022/01/16 08:36:14;;;;;;;;;;;4.80;99.90;;;;;;5028252;28;19921;-77
2022/01/16 08:38:39;;;;;;;;;;;4.90;99.90;;;;;;5019571;28;19925;-78
2022/01/16 08:41:05;;;;;;;;;;;5.00;99.90;;;;;;5017868;28;19913;-78
2022/01/16 08:43:30;;;;;;;;;;;5.10;99.90;;;;;;5032391;28;19913;-76
2022/01/16 08:45:56;;;;;;;;;;;5.10;99.90;;;;;;5023983;28;19913;-77
2022/01/16 08:48:22;;;;;;;;;;;5.10;99.90;;;;;;5021898;28;20269;-76
2022/01/16 08:50:47;;;;;;;;;;;5.10;99.90;;;;;;5036499;28;19920;-77
2022/01/16 08:53:13;;;;;;;;;;;5.10;99.90;;;;;;5033844;28;19913;-77
2022/01/16 08:55:38;;;;;;;;;;;5.10;99.90;;;;;;5031458;28;19917;-77
2022/01/16 08:58:04;;;;;;;;;;;5.20;99.90;;;;;;5037813;28;20567;-77
2022/01/16 09:00:31;;;;;;;;;;;5.30;99.90;;;;;;5020721;28;20215;-77
2022/01/16 09:02:57;;;;;;;;;;;5.40;99.90;;;;;;5036220;28;19917;-77
2022/01/16 09:05:23;;;;;;;;;;;5.40;99.90;;;;;;5034902;28;20335;-77
2022/01/16 09:07:49;;;;;;;;;;;5.40;99.90;;;;;;5036381;28;19921;-78
2022/01/16 09:10:15;;;;;;;;;;;5.40;99.90;;;;;;5033556;28;20323;-78
2022/01/16 09:12:40;;;;;;;;;;;5.40;99.90;;;;;;5037026;28;19924;-78
2022/01/16 09:15:07;;;;;;;;;;;5.50;99.90;;;;;;5018118;28;20014;-78
2022/01/16 09:17:32;;;;;;;;;;;5.50;99.90;;;;;;5016742;28;20048;-77
2022/01/16 09:19:58;;;;;;;;;;;5.60;99.90;;;;;;5036599;28;20003;-78
2022/01/16 09:22:23;;;;;;;;;;;5.60;99.90;;;;;;5037638;28;19998;-76
2022/01/16 09:24:49;;;;;;;;;;;5.60;99.90;;;;;;5031515;28;19953;-78
2022/01/16 09:27:18;;;;;;;;;;;5.70;99.90;;;;;;5032146;28;20349;-77
2022/01/16 09:29:44;;;;;;;;;;;5.70;99.90;;;;;;5033316;28;20331;-78
2022/01/16 09:32:13;;;;;;;;;;;5.70;99.90;;;;;;5014754;28;19943;-79
2022/01/16 09:34:39;;;;;;;;;;;5.80;99.90;;;;;;5031048;28;19917;-78
2022/01/16 09:37:08;;;;;;;;;;;5.90;99.90;;;;;;5032368;28;20240;-80
2022/01/16 09:39:35;;;;;;;;;;;6.00;99.90;;;;;;5017217;28;20255;-78
2022/01/16 09:42:01;;;;;;;;;;;6.00;99.90;;;;;;5033525;28;19917;-79
2022/01/16 09:44:27;;;;;;;;;;;6.00;99.90;;;;;;5022970;28;20206;-78
2022/01/16 09:46:53;;;;;;;;;;;6.10;99.90;;;;;;5026028;28;20004;-78
2022/01/16 09:49:18;;;;;;;;;;;6.10;99.90;;;;;;5024731;28;20039;-78
2022/01/16 09:51:44;;;;;;;;;;;6.10;99.90;;;;;;5032262;28;20008;-79
2022/01/16 09:54:09;;;;;;;;;;;6.10;99.90;;;;;;5026242;28;20331;-79
2022/01/16 09:56:35;;;;;;;;;;;6.20;99.90;;;;;;5020229;28;20332;-78
2022/01/16 09:59:00;;;;;;;;;;;6.20;99.90;;;;;;5034648;28;20304;-79
2022/01/16 10:01:26;;;;;;;;;;;6.20;99.90;;;;;;5027439;28;19917;-77
2022/01/16 10:03:51;;;;;;;;;;;6.20;99.90;;;;;;5055666;22;19924;-78
2022/01/16 10:06:20;;;;;;;;;;;6.10;99.90;;;;;;5073510;28;20277;-78
2022/01/16 10:08:47;;;;;;;;;;;6.20;99.90;;;;;;5068597;28;19916;-77
2022/01/16 10:11:38;;;;;;;;;;;6.20;99.90;;;;;;5072747;28;20347;-77
2022/01/16 10:14:22;;;;;;;;;;;6.20;99.90;;;;;;5062009;28;20344;-78
2022/01/16 10:16:48;;;;;;;;;;;6.30;99.90;;;;;;5062487;28;19967;-78
2022/01/16 10:19:21;;;;;;;;;;;6.40;99.90;;;;;;5073181;28;19944;-79
2022/01/16 10:21:47;;;;;;;;;;;6.40;99.90;;;;;;5063420;28;19920;-78
2022/01/16 10:24:15;;;;;;;;;;;6.40;99.90;;;;;;5072954;28;19917;-78
2022/01/16 10:26:41;;;;;;;;;;;6.40;99.90;;;;;;5060932;28;19952;-78
2022/01/16 10:29:07;;;;;;;;;;;6.40;99.90;;;;;;5037819;28;19959;-78
2022/01/16 10:31:32;;;;;;;;;;;6.40;99.90;;;;;;5071758;28;19939;-77
2022/01/16 10:33:58;;;;;;;;;;;6.40;99.90;;;;;;5051595;28;19916;-78
2022/01/16 10:36:30;;;;;;;;;;;6.40;99.90;;;;;;5072728;28;19920;-78
2022/01/16 10:39:03;;;;;;;;;;;6.40;99.90;;;;;;5070611;28;20307;-78
2022/01/16 10:41:29;;;;;;;;;;;6.30;99.90;;;;;;5070525;28;19916;-78
2022/01/16 10:43:54;;;;;;;;;;;6.30;99.90;;;;;;5054027;28;19916;-77
2022/01/16 10:46:24;;;;;;;;;;;6.30;99.90;;;;;;5068754;28;19943;-78
2022/01/16 10:49:09;;;;;;;;;;;6.20;99.90;;;;;;5067728;28;19921;-78
2022/01/16 10:51:37;;;;;;;;;;;6.20;99.90;;;;;;5068019;28;19927;-78
2022/01/16 10:54:22;;;;;;;;;;;6.20;99.90;;;;;;5049946;28;19928;-78
2022/01/16 10:56:48;;;;;;;;;;;6.10;99.90;;;;;;5060828;28;19942;-77
2022/01/16 10:59:23;;;;;;;;;;;6.10;99.90;;;;;;5052599;28;20323;-78
2022/01/16 11:02:07;;;;;;;;;;;6.10;99.90;;;;;;5048213;28;19920;-79
2022/01/16 11:04:33;;;;;;;;;;;6.10;99.90;;;;;;5069599;28;19977;-78
2022/01/16 11:07:02;;;;;;;;;;;6.10;99.90;;;;;;5055215;28;19917;-77
2022/01/16 11:09:28;;;;;;;;;;;6.10;99.90;;;;;;5049214;28;19965;-78
2022/01/16 11:11:57;;;;;;;;;;;6.00;99.90;;;;;;5069313;28;19924;-79
2022/01/16 11:14:23;;;;;;;;;;;6.10;99.90;;;;;;5071832;28;19921;-80
2022/01/16 11:16:49;;;;;;;;;;;6.00;99.90;;;;;;5055637;28;19927;-79
2022/01/16 11:19:16;;;;;;;;;;;6.10;99.90;;;;;;5070297;28;19920;-79
2022/01/16 11:21:43;;;;;;;;;;;6.10;99.90;;;;;;5071571;28;19956;-79
2022/01/16 11:26:38;;;;;;;;;;;6.10;99.90;;;;;;5071977;28;19920;-78
2022/01/16 11:29:04;;;;;;;;;;;6.10;99.90;;;;;;5076393;28;20408;-80
2022/01/16 11:31:29;;;;;;;;;;;6.10;99.90;;;;;;5071697;28;19916;-78
2022/01/16 11:33:55;;;;;;;;;;;6.10;99.90;;;;;;5052759;28;19920;-79
2022/01/16 11:36:21;;;;;;;;;;;6.10;99.90;;;;;;5071645;28;19964;-79
2022/01/16 11:38:51;;;;;;;;;;;6.10;99.90;;;;;;5051891;28;19917;-79
2022/01/16 11:41:19;;;;;;;;;;;6.10;99.90;;;;;;5067807;28;20186;-79
2022/01/16 11:43:46;;;;;;;;;;;6.10;99.90;;;;;;5045562;28;20382;-80
2022/01/16 11:46:13;;;;;;;;;;;6.10;99.90;;;;;;5071520;28;19963;-77
2022/01/16 11:48:39;;;;;;;;;;;6.10;99.90;;;;;;5071619;28;19924;-79
2022/01/16 11:51:06;;;;;;;;;;;6.10;99.90;;;;;;5071373;28;19985;-80
2022/01/16 11:53:50;;;;;;;;;;;6.10;99.90;;;;;;5072393;28;20033;-81
2022/01/16 11:56:34;;;;;;;;;;;6.10;99.90;;;;;;5072080;28;19920;-80
2022/01/16 11:59:18;;;;;;;;;;;6.10;99.90;;;;;;5052723;28;19916;-79
2022/01/16 12:01:46;;;;;;;;;;;6.10;99.90;;;;;;5067698;28;19943;-77
2022/01/16 12:04:27;;;;;;;;;;;6.20;99.90;;;;;;5049738;28;19929;-79
2022/01/16 12:06:53;;;;;;;;;;;6.20;99.90;;;;;;5058527;28;19920;-78
2022/01/16 12:09:50;;;;;;;;;;;6.20;99.90;;;;;;5050854;28;20655;-79
2022/01/16 12:12:16;;;;;;;;;;;6.20;99.90;;;;;;5029810;28;20231;-78
2022/01/16 12:14:49;;;;;;;;;;;6.30;99.90;;;;;;5048707;28;19943;-79
2022/01/16 12:17:27;;;;;;;;;;;6.30;99.90;;;;;;5067233;28;19920;-78
2022/01/16 12:19:54;;;;;;;;;;;6.30;99.90;;;;;;5064961;28;19920;-79
2022/01/16 12:22:39;;;;;;;;;;;6.30;99.90;;;;;;5065605;28;19987;-78
2022/01/16 12:25:08;;;;;;;;;;;6.30;99.90;;;;;;5067351;28;19920;-80
2022/01/16 12:27:36;;;;;;;;;;;6.30;99.90;;;;;;5051966;28;19924;-81
2022/01/16 12:30:11;;;;;;;;;;;6.30;99.90;;;;;;5068596;28;20266;-79
2022/01/16 12:32:55;;;;;;;;;;;6.20;99.90;;;;;;5055611;28;20331;-80
2022/01/16 12:35:39;;;;;;;;;;;6.30;99.90;;;;;;5048212;28;19920;-79
2022/01/16 12:38:25;;;;;;;;;;;6.30;99.90;;;;;;5072325;28;19952;-80
2022/01/16 12:40:58;;;;;;;;;;;6.30;99.90;;;;;;5065217;28;19970;-79
2022/01/16 12:43:30;;;;;;;;;;;6.30;99.90;;;;;;5071709;28;20386;-79
2022/01/16 12:45:56;;;;;;;;;;;6.30;99.90;;;;;;5069584;28;19920;-79
2022/01/16 12:48:22;;;;;;;;;;;6.30;99.90;;;;;;5055024;28;19917;-79
2022/01/16 12:50:48;;;;;;;;;;;6.40;99.90;;;;;;5056016;28;20231;-80
2022/01/16 12:53:13;;;;;;;;;;;6.40;99.90;;;;;;5056553;28;19912;-80
2022/01/16 12:55:39;;;;;;;;;;;6.50;99.90;;;;;;5067901;28;20012;-81
2022/01/16 12:58:13;;;;;;;;;;;6.50;99.90;;;;;;5054552;28;19948;-79
2022/01/16 13:00:56;;;;;;;;;;;6.50;99.90;;;;;;5065275;28;19916;-80
2022/01/16 13:03:25;;;;;;;;;;;6.50;99.90;;;;;;5054325;28;19913;-79
2022/01/16 13:05:51;;;;;;;;;;;6.50;99.90;;;;;;5070989;28;19928;-81
2022/01/16 13:08:16;;;;;;;;;;;6.50;99.90;;;;;;5055415;28;19920;-80
2022/01/16 13:10:42;;;;;;;;;;;6.50;99.90;;;;;;5074143;28;20030;-80
2022/01/16 13:13:11;;;;;;;;;;;6.50;99.90;;;;;;5056165;28;20027;-78
2022/01/16 13:15:37;;;;;;;;;;;6.60;99.90;;;;;;5055516;28;20020;-81
2022/01/16 13:18:11;;;;;;;;;;;6.60;99.90;;;;;;5068066;28;19995;-79
2022/01/16 13:20:37;;;;;;;;;;;6.60;99.90;;;;;;5060917;28;19917;-80
2022/01/16 13:23:02;;;;;;;;;;;6.60;99.90;;;;;;5073722;28;19908;-79
2022/01/16 13:25:29;;;;;;;;;;;6.60;99.90;;;;;;5055773;28;19913;-79
2022/01/16 13:27:55;;;;;;;;;;;6.70;99.90;;;;;;5055695;28;19958;-78
2022/01/16 13:30:26;;;;;;;;;;;6.70;99.90;;;;;;5056933;28;19916;-78
2022/01/16 13:32:52;;;;;;;;;;;6.60;99.90;;;;;;5056287;28;19921;-78
2022/01/16 13:35:25;;;;;;;;;;;6.60;99.90;;;;;;5076188;28;19970;-78
2022/01/16 13:38:04;;;;;;;;;;;6.60;99.90;;;;;;5070065;28;20027;-78
2022/01/16 13:40:30;;;;;;;;;;;6.70;99.90;;;;;;5067696;28;19969;-78
2022/01/16 13:45:27;;;;;;;;;;;6.70;99.90;;;;;;5085303;28;19959;-78
2022/01/16 13:48:06;;;;;;;;;;;6.60;99.90;;;;;;5085992;28;20278;-78
2022/01/16 13:50:40;;;;;;;;;;;6.70;99.90;;;;;;5069129;28;20366;-78
2022/01/16 13:53:10;;;;;;;;;;;6.70;99.90;;;;;;5081205;28;20315;-78
2022/01/16 13:55:50;;;;;;;;;;;6.70;99.90;;;;;;5073690;28;19920;-77
2022/01/16 13:58:16;;;;;;;;;;;6.70;99.90;;;;;;5073435;28;19931;-78
2022/01/16 14:00:42;;;;;;;;;;;6.70;99.90;;;;;;5078114;28;19920;-78
2022/01/16 14:03:09;;;;;;;;;;;6.70;99.90;;;;;;5080306;28;19940;-78
2022/01/16 14:05:39;;;;;;;;;;;6.70;99.90;;;;;;5075240;28;19977;-78
2022/01/16 14:08:39;;;;;;;;;;;6.70;99.90;;;;;;5064627;28;19992;-77
2022/01/16 14:11:11;;;;;;;;;;;6.70;99.90;;;;;;4990635;28;19918;-77
2022/01/16 14:13:50;;;;;;;;;;;6.70;99.90;;;;;;4982546;28;20257;-78
2022/01/16 14:16:18;;;;;;;;;;;6.70;99.90;;;;;;4971851;28;19922;-77
2022/01/16 14:24:04;;;;;;;;;;;7.00;99.90;;;;;;4968847;28;19922;-78
2022/01/16 14:26:30;;;;;;;;;;;7.10;99.90;;;;;;4971599;28;19941;-79
2022/01/16 14:28:56;;;;;;;;;;;7.20;99.90;;;;;;4960500;28;20017;-79
2022/01/16 14:31:21;;;;;;;;;;;7.20;99.90;;;;;;4976705;28;20012;-78
2022/01/16 14:33:47;;;;;;;;;;;7.20;99.90;;;;;;4991335;28;19913;-76
2022/01/16 14:36:13;;;;;;;;;;;7.30;99.90;;;;;;4975237;28;20016;-76
2022/01/16 14:38:39;;;;;;;;;;;7.30;99.90;;;;;;4972050;28;19969;-76
2022/01/16 14:41:05;;;;;;;;;;;7.30;99.90;;;;;;4967732;28;19918;-76
2022/01/16 14:43:41;;;;;;;;;;;7.30;99.90;;;;;;4970528;28;20033;-76
2022/01/16 14:46:07;;;;;;;;;;;7.20;99.90;;;;;;4993810;28;19917;-76
2022/01/16 14:48:33;;;;;;;;;;;7.20;99.90;;;;;;5034955;28;19913;-76
2022/01/16 14:50:58;;;;;;;;;;;7.30;99.90;;;;;;5048902;28;19913;-76
2022/01/16 14:53:24;;;;;;;;;;;7.20;99.90;;;;;;5072557;28;19932;-77
2022/01/16 14:55:49;;;;;;;;;;;7.30;99.90;;;;;;5053859;28;19970;-76
2022/01/16 14:58:15;;;;;;;;;;;7.30;99.90;;;;;;5072780;28;20394;-77
2022/01/16 15:00:40;;;;;;;;;;;7.30;99.90;;;;;;5055887;28;20366;-76
2022/01/16 15:03:06;;;;;;;;;;;7.30;99.90;;;;;;5082526;28;20402;-76
2022/01/16 15:05:31;;;;;;;;;;;7.30;99.90;;;;;;5054213;28;20303;-76
2022/01/16 15:07:57;;;;;;;;;;;7.30;99.90;;;;;;5074903;28;19981;-77
2022/01/16 15:10:23;;;;;;;;;;;7.30;99.90;;;;;;5061983;28;19912;-79
2022/01/16 15:12:48;;;;;;;;;;;7.30;99.90;;;;;;5065472;28;20273;-76
2022/01/16 15:15:14;;;;;;;;;;;7.30;99.90;;;;;;5050784;28;20015;-77
2022/01/16 15:17:43;;;;;;;;;;;7.20;99.90;;;;;;5085127;28;19923;-77
2022/01/16 15:20:16;;;;;;;;;;;7.20;99.90;;;;;;5064687;28;19912;-77
2022/01/16 15:22:43;;;;;;;;;;;7.20;99.90;;;;;;5053289;28;19916;-77
2022/01/16 15:25:09;;;;;;;;;;;7.20;99.90;;;;;;5087135;28;19912;-76
2022/01/16 15:27:34;;;;;;;;;;;7.10;99.90;;;;;;5070417;28;20306;-76